sensor_id;sensor_type;location;lat;lon;timestamp;pressure;altitude;pressure_sealevel;temperature;humidity
66430;BME280;53242;51.694;10.006;2023-12-29T00:02:18;98989.41;;;8.40;76.85
66430;BME280;53242;51.694;10.006;2023-12-29T00:04:41;98977.47;;;8.37;76.55
66430;BME280;53242;51.694;10.006;2023-12-29T00:07:04;98975.59;;;8.31;76.47
66430;BME280;53242;51.694;10.006;2023-12-29T00:09:27;98972.41;;;8.36;76.47
66430;BME280;53242;51.694;10.006;2023-12-29T00:11:50;98954.38;;;8.33;76.43
66430;BME280;53242;51.694;10.006;2023-12-29T00:14:13;98952.72;;;8.32;76.59
66430;BME280;53242;51.694;10.006;2023-12-29T00:16:35;98945.69;;;8.32;76.44
66430;BME280;53242;51.694;10.006;2023-12-29T00:18:57;98947.31;;;8.33;76.56
66430;BME280;53242;51.694;10.006;2023-12-29T00:21:20;98940.00;;;8.35;76.65
66430;BME280;53242;51.694;10.006;2023-12-29T00:23:43;98936.19;;;8.38;76.76
66430;BME280;53242;51.694;10.006;2023-12-29T00:26:06;98937.03;;;8.38;76.60
66430;BME280;53242;51.694;10.006;2023-12-29T00:28:28;98936.38;;;8.36;76.34
66430;BME280;53242;51.694;10.006;2023-12-29T00:30:50;98944.72;;;8.40;76.36
66430;BME280;53242;51.694;10.006;2023-12-29T00:33:13;98938.63;;;8.39;75.89
66430;BME280;53242;51.694;10.006;2023-12-29T00:35:38;98952.78;;;8.38;75.72
66430;BME280;53242;51.694;10.006;2023-12-29T00:38:01;98949.53;;;8.36;76.17
66430;BME280;53242;51.694;10.006;2023-12-29T00:40:23;98945.06;;;8.37;76.25
66430;BME280;53242;51.694;10.006;2023-12-29T00:42:46;98945.28;;;8.35;76.45
66430;BME280;53242;51.694;10.006;2023-12-29T00:45:08;98940.00;;;8.35;76.75
66430;BME280;53242;51.694;10.006;2023-12-29T00:47:31;98941.84;;;8.35;76.95
66430;BME280;53242;51.694;10.006;2023-12-29T00:49:53;98942.28;;;8.38;76.50
66430;BME280;53242;51.694;10.006;2023-12-29T00:52:15;98945.94;;;8.44;76.83
66430;BME280;53242;51.694;10.006;2023-12-29T00:54:40;98943.31;;;8.44;76.40
66430;BME280;53242;51.694;10.006;2023-12-29T00:57:02;98946.34;;;8.41;76.73
66430;BME280;53242;51.694;10.006;2023-12-29T00:59:24;98936.22;;;8.45;76.68
66430;BME280;53242;51.694;10.006;2023-12-29T01:01:47;98939.66;;;8.38;76.87
66430;BME280;53242;51.694;10.006;2023-12-29T01:04:09;98938.72;;;8.46;76.89
66430;BME280;53242;51.694;10.006;2023-12-29T01:06:32;98938.84;;;8.45;77.08
66430;BME280;53242;51.694;10.006;2023-12-29T01:08:54;98940.50;;;8.46;76.98
66430;BME280;53242;51.694;10.006;2023-12-29T01:11:16;98940.94;;;8.49;77.22
66430;BME280;53242;51.694;10.006;2023-12-29T01:13:39;98938.50;;;8.48;77.38
66430;BME280;53242;51.694;10.006;2023-12-29T01:16:01;98931.41;;;8.48;77.57
66430;BME280;53242;51.694;10.006;2023-12-29T01:18:25;98927.00;;;8.49;77.38
66430;BME280;53242;51.694;10.006;2023-12-29T01:20:47;98926.72;;;8.44;77.68
66430;BME280;53242;51.694;10.006;2023-12-29T01:23:10;98935.25;;;8.46;77.68
66430;BME280;53242;51.694;10.006;2023-12-29T01:25:32;98927.16;;;8.47;77.69
66430;BME280;53242;51.694;10.006;2023-12-29T01:27:54;98913.59;;;8.44;77.93
66430;BME280;53242;51.694;10.006;2023-12-29T01:30:17;98925.78;;;8.51;77.82
66430;BME280;53242;51.694;10.006;2023-12-29T01:32:39;98909.69;;;8.39;78.42
66430;BME280;53242;51.694;10.006;2023-12-29T01:35:02;98906.13;;;8.47;78.11
66430;BME280;53242;51.694;10.006;2023-12-29T01:37:24;98895.97;;;8.44;78.44
66430;BME280;53242;51.694;10.006;2023-12-29T01:39:47;98901.88;;;8.46;78.29
66430;BME280;53242;51.694;10.006;2023-12-29T01:42:09;98908.31;;;8.44;78.68
66430;BME280;53242;51.694;10.006;2023-12-29T01:44:33;98902.22;;;8.43;78.92
66430;BME280;53242;51.694;10.006;2023-12-29T01:46:59;98904.66;;;8.45;79.05
66430;BME280;53242;51.694;10.006;2023-12-29T01:49:22;98907.16;;;8.46;79.09
66430;BME280;53242;51.694;10.006;2023-12-29T01:51:50;98893.03;;;8.54;79.10
66430;BME280;53242;51.694;10.006;2023-12-29T01:54:14;98889.78;;;8.52;78.89
66430;BME280;53242;51.694;10.006;2023-12-29T01:56:37;98885.72;;;8.49;79.38
66430;BME280;53242;51.694;10.006;2023-12-29T01:59:00;98882.88;;;8.51;79.37
66430;BME280;53242;51.694;10.006;2023-12-29T02:01:22;98874.00;;;8.52;79.24
66430;BME280;53242;51.694;10.006;2023-12-29T02:03:45;98868.16;;;8.57;79.22
66430;BME280;53242;51.694;10.006;2023-12-29T02:06:08;98859.44;;;8.56;79.30
66430;BME280;53242;51.694;10.006;2023-12-29T02:08:31;98859.00;;;8.52;79.57
66430;BME280;53242;51.694;10.006;2023-12-29T02:10:55;98860.84;;;8.59;79.60
66430;BME280;53242;51.694;10.006;2023-12-29T02:13:17;98868.53;;;8.60;79.68
66430;BME280;53242;51.694;10.006;2023-12-29T02:15:40;98867.31;;;8.56;80.40
66430;BME280;53242;51.694;10.006;2023-12-29T02:18:06;98851.97;;;8.60;80.27
66430;BME280;53242;51.694;10.006;2023-12-29T02:20:29;98844.88;;;8.60;80.47
66430;BME280;53242;51.694;10.006;2023-12-29T02:22:51;98846.88;;;8.51;80.33
66430;BME280;53242;51.694;10.006;2023-12-29T02:25:14;98837.38;;;8.50;80.53
66430;BME280;53242;51.694;10.006;2023-12-29T02:27:44;98837.19;;;8.59;79.85
66430;BME280;53242;51.694;10.006;2023-12-29T02:31:00;98829.72;;;8.62;79.82
66430;BME280;53242;51.694;10.006;2023-12-29T02:33:05;98823.44;;;8.63;79.41
66430;BME280;53242;51.694;10.006;2023-12-29T02:35:33;98824.25;;;8.64;79.76
66430;BME280;53242;51.694;10.006;2023-12-29T02:37:58;98825.28;;;8.69;79.23
66430;BME280;53242;51.694;10.006;2023-12-29T02:40:21;98813.94;;;8.69;79.38
66430;BME280;53242;51.694;10.006;2023-12-29T02:42:48;98828.94;;;8.68;79.20
66430;BME280;53242;51.694;10.006;2023-12-29T02:45:11;98822.47;;;8.71;78.99
66430;BME280;53242;51.694;10.006;2023-12-29T02:47:34;98808.47;;;8.70;79.07
66430;BME280;53242;51.694;10.006;2023-12-29T02:49:56;98814.16;;;8.74;78.54
66430;BME280;53242;51.694;10.006;2023-12-29T02:52:18;98812.53;;;8.73;78.86
66430;BME280;53242;51.694;10.006;2023-12-29T02:54:41;98815.59;;;8.77;78.34
66430;BME280;53242;51.694;10.006;2023-12-29T02:57:03;98815.78;;;8.75;78.42
66430;BME280;53242;51.694;10.006;2023-12-29T02:59:26;98813.34;;;8.74;78.30
66430;BME280;53242;51.694;10.006;2023-12-29T03:01:48;98812.97;;;8.83;78.09
66430;BME280;53242;51.694;10.006;2023-12-29T03:04:10;98814.56;;;8.71;78.46
66430;BME280;53242;51.694;10.006;2023-12-29T03:06:33;98818.41;;;8.82;78.38
66430;BME280;53242;51.694;10.006;2023-12-29T03:08:56;98821.25;;;8.74;77.83
66430;BME280;53242;51.694;10.006;2023-12-29T03:11:19;98819.44;;;8.81;77.95
66430;BME280;53242;51.694;10.006;2023-12-29T03:13:41;98821.88;;;8.82;77.91
66430;BME280;53242;51.694;10.006;2023-12-29T03:16:04;98812.97;;;8.83;77.74
66430;BME280;53242;51.694;10.006;2023-12-29T03:18:26;98814.00;;;8.82;77.74
66430;BME280;53242;51.694;10.006;2023-12-29T03:20:48;98809.53;;;8.76;77.86
66430;BME280;53242;51.694;10.006;2023-12-29T03:23:11;98811.31;;;8.69;78.58
66430;BME280;53242;51.694;10.006;2023-12-29T03:25:34;98813.94;;;8.76;78.34
66430;BME280;53242;51.694;10.006;2023-12-29T03:27:57;98819.25;;;8.82;77.85
66430;BME280;53242;51.694;10.006;2023-12-29T03:30:21;98813.38;;;8.87;77.35
66430;BME280;53242;51.694;10.006;2023-12-29T03:32:43;98809.94;;;8.86;77.62
66430;BME280;53242;51.694;10.006;2023-12-29T03:35:06;98815.00;;;8.81;77.59
66430;BME280;53242;51.694;10.006;2023-12-29T03:37:28;98809.94;;;8.80;77.74
66430;BME280;53242;51.694;10.006;2023-12-29T03:39:50;98807.88;;;8.75;77.56
66430;BME280;53242;51.694;10.006;2023-12-29T03:42:13;98801.84;;;8.75;77.87
66430;BME280;53242;51.694;10.006;2023-12-29T03:44:35;98799.59;;;8.78;77.82
66430;BME280;53242;51.694;10.006;2023-12-29T03:46:58;98797.78;;;8.79;77.37
66430;BME280;53242;51.694;10.006;2023-12-29T03:49:21;98790.69;;;8.79;77.65
66430;BME280;53242;51.694;10.006;2023-12-29T03:51:43;98784.22;;;8.75;77.17
66430;BME280;53242;51.694;10.006;2023-12-29T03:54:06;98788.69;;;8.75;77.24
66430;BME280;53242;51.694;10.006;2023-12-29T03:56:28;98790.28;;;8.76;77.72
66430;BME280;53242;51.694;10.006;2023-12-29T03:58:50;98776.31;;;8.75;78.08
66430;BME280;53242;51.694;10.006;2023-12-29T04:01:14;98773.47;;;8.70;78.50
66430;BME280;53242;51.694;10.006;2023-12-29T04:03:37;98773.69;;;8.62;79.54
66430;BME280;53242;51.694;10.006;2023-12-29T04:06:00;98777.69;;;8.58;80.63
66430;BME280;53242;51.694;10.006;2023-12-29T04:08:22;98772.84;;;8.61;80.77
66430;BME280;53242;51.694;10.006;2023-12-29T04:10:44;98775.47;;;8.48;81.71
66430;BME280;53242;51.694;10.006;2023-12-29T04:13:07;98780.09;;;8.46;82.50
66430;BME280;53242;51.694;10.006;2023-12-29T04:15:29;98781.91;;;8.45;83.37
66430;BME280;53242;51.694;10.006;2023-12-29T04:17:52;98780.84;;;8.33;85.14
66430;BME280;53242;51.694;10.006;2023-12-29T04:20:14;98769.75;;;8.37;84.95
66430;BME280;53242;51.694;10.006;2023-12-29T04:22:36;98785.44;;;8.24;87.04
66430;BME280;53242;51.694;10.006;2023-12-29T04:24:59;98787.06;;;8.18;87.01
66430;BME280;53242;51.694;10.006;2023-12-29T04:27:22;98786.47;;;8.23;87.49
66430;BME280;53242;51.694;10.006;2023-12-29T04:29:44;98784.44;;;8.18;87.90
66430;BME280;53242;51.694;10.006;2023-12-29T04:32:07;98784.84;;;8.22;88.54
66430;BME280;53242;51.694;10.006;2023-12-29T04:34:30;98779.41;;;8.23;88.37
66430;BME280;53242;51.694;10.006;2023-12-29T04:36:52;98785.97;;;8.06;90.05
66430;BME280;53242;51.694;10.006;2023-12-29T04:39:14;98783.19;;;8.07;90.57
66430;BME280;53242;51.694;10.006;2023-12-29T04:41:37;98786.22;;;8.11;90.61
66430;BME280;53242;51.694;10.006;2023-12-29T04:43:59;98771.81;;;8.00;91.00
66430;BME280;53242;51.694;10.006;2023-12-29T04:46:22;98774.25;;;8.02;91.46
66430;BME280;53242;51.694;10.006;2023-12-29T04:48:44;98769.22;;;8.07;91.08
66430;BME280;53242;51.694;10.006;2023-12-29T04:51:07;98767.00;;;8.04;91.19
66430;BME280;53242;51.694;10.006;2023-12-29T04:53:29;98771.03;;;8.00;90.81
66430;BME280;53242;51.694;10.006;2023-12-29T04:55:52;98760.09;;;8.03;91.25
66430;BME280;53242;51.694;10.006;2023-12-29T04:58:14;98765.78;;;8.06;91.01
66430;BME280;53242;51.694;10.006;2023-12-29T05:00:36;98755.06;;;8.08;90.60
66430;BME280;53242;51.694;10.006;2023-12-29T05:02:59;98753.44;;;8.07;90.44
66430;BME280;53242;51.694;10.006;2023-12-29T05:05:22;98757.53;;;8.16;89.87
66430;BME280;53242;51.694;10.006;2023-12-29T05:07:44;98761.97;;;8.16;90.08
66430;BME280;53242;51.694;10.006;2023-12-29T05:10:07;98756.50;;;8.17;89.76
66430;BME280;53242;51.694;10.006;2023-12-29T05:12:29;98758.13;;;8.12;90.39
66430;BME280;53242;51.694;10.006;2023-12-29T05:14:52;98746.41;;;8.14;90.40
66430;BME280;53242;51.694;10.006;2023-12-29T05:17:14;98752.25;;;8.16;90.36
66430;BME280;53242;51.694;10.006;2023-12-29T05:19:37;98758.94;;;8.12;90.46
66430;BME280;53242;51.694;10.006;2023-12-29T05:21:59;98756.47;;;8.04;90.89
66430;BME280;53242;51.694;10.006;2023-12-29T05:24:21;98747.81;;;8.10;90.62
66430;BME280;53242;51.694;10.006;2023-12-29T05:26:44;98754.22;;;8.01;91.37
66430;BME280;53242;51.694;10.006;2023-12-29T05:29:06;98753.41;;;7.94;90.68
66430;BME280;53242;51.694;10.006;2023-12-29T05:31:29;98751.44;;;8.02;90.45
66430;BME280;53242;51.694;10.006;2023-12-29T05:33:51;98752.22;;;8.03;90.41
66430;BME280;53242;51.694;10.006;2023-12-29T05:36:14;98752.25;;;8.10;90.39
66430;BME280;53242;51.694;10.006;2023-12-29T05:38:37;98755.50;;;8.12;90.16
66430;BME280;53242;51.694;10.006;2023-12-29T05:41:00;98756.06;;;8.00;91.00
66430;BME280;53242;51.694;10.006;2023-12-29T05:43:24;98752.81;;;7.98;91.68
66430;BME280;53242;51.694;10.006;2023-12-29T05:45:47;98756.69;;;8.02;91.68
66430;BME280;53242;51.694;10.006;2023-12-29T05:48:10;98762.72;;;7.96;92.57
66430;BME280;53242;51.694;10.006;2023-12-29T05:50:32;98765.34;;;7.96;92.56
66430;BME280;53242;51.694;10.006;2023-12-29T05:52:54;98762.50;;;7.91;93.58
66430;BME280;53242;51.694;10.006;2023-12-29T05:55:18;98758.22;;;7.83;93.93
66430;BME280;53242;51.694;10.006;2023-12-29T05:57:41;98756.78;;;7.81;95.51
66430;BME280;53242;51.694;10.006;2023-12-29T06:00:03;98756.94;;;7.79;95.35
66430;BME280;53242;51.694;10.006;2023-12-29T06:02:34;98755.59;;;7.83;95.35
66430;BME280;53242;51.694;10.006;2023-12-29T06:04:56;98759.22;;;7.82;94.40
66430;BME280;53242;51.694;10.006;2023-12-29T06:07:19;98756.81;;;7.87;94.03
66430;BME280;53242;51.694;10.006;2023-12-29T06:09:41;98753.19;;;7.88;93.32
66430;BME280;53242;51.694;10.006;2023-12-29T06:12:04;98751.97;;;7.91;92.84
66430;BME280;53242;51.694;10.006;2023-12-29T06:14:26;98760.84;;;7.90;91.83
66430;BME280;53242;51.694;10.006;2023-12-29T06:16:49;98768.34;;;7.93;91.75
66430;BME280;53242;51.694;10.006;2023-12-29T06:19:11;98775.03;;;7.96;91.50
66430;BME280;53242;51.694;10.006;2023-12-29T06:21:33;98766.13;;;7.97;90.65
66430;BME280;53242;51.694;10.006;2023-12-29T06:23:56;98767.38;;;8.01;90.26
66430;BME280;53242;51.694;10.006;2023-12-29T06:26:20;98765.78;;;8.06;89.52
66430;BME280;53242;51.694;10.006;2023-12-29T06:28:42;98773.25;;;8.03;89.20
66430;BME280;53242;51.694;10.006;2023-12-29T06:31:05;98759.72;;;8.06;88.87
66430;BME280;53242;51.694;10.006;2023-12-29T06:33:27;98767.81;;;8.11;88.53
66430;BME280;53242;51.694;10.006;2023-12-29T06:35:49;98762.09;;;8.01;88.46
66430;BME280;53242;51.694;10.006;2023-12-29T06:38:12;98764.94;;;7.99;88.37
66430;BME280;53242;51.694;10.006;2023-12-29T06:40:34;98764.78;;;8.07;87.62
66430;BME280;53242;51.694;10.006;2023-12-29T06:42:57;98766.00;;;8.12;87.67
66430;BME280;53242;51.694;10.006;2023-12-29T06:45:19;98772.28;;;8.11;87.90
66430;BME280;53242;51.694;10.006;2023-12-29T06:47:41;98756.28;;;8.12;88.42
66430;BME280;53242;51.694;10.006;2023-12-29T06:50:04;98762.16;;;8.07;88.21
66430;BME280;53242;51.694;10.006;2023-12-29T06:52:28;98749.59;;;8.03;88.63
66430;BME280;53242;51.694;10.006;2023-12-29T06:54:56;98747.16;;;7.95;89.85
66430;BME280;53242;51.694;10.006;2023-12-29T06:57:18;98746.91;;;7.89;90.32
66430;BME280;53242;51.694;10.006;2023-12-29T06:59:40;98743.88;;;7.86;90.18
66430;BME280;53242;51.694;10.006;2023-12-29T07:02:03;98760.22;;;7.88;90.10
66430;BME280;53242;51.694;10.006;2023-12-29T07:04:26;98763.28;;;7.92;90.30
66430;BME280;53242;51.694;10.006;2023-12-29T07:06:49;98757.03;;;7.93;89.39
66430;BME280;53242;51.694;10.006;2023-12-29T07:09:11;98757.47;;;7.96;89.65
66430;BME280;53242;51.694;10.006;2023-12-29T07:11:34;98761.72;;;7.97;89.50
66430;BME280;53242;51.694;10.006;2023-12-29T07:13:56;98768.56;;;7.98;89.24
66430;BME280;53242;51.694;10.006;2023-12-29T07:16:19;98781.91;;;7.97;89.18
66430;BME280;53242;51.694;10.006;2023-12-29T07:18:42;98773.03;;;7.98;89.03
66430;BME280;53242;51.694;10.006;2023-12-29T07:21:05;98770.16;;;7.93;90.01
66430;BME280;53242;51.694;10.006;2023-12-29T07:23:27;98756.69;;;8.02;88.75
66430;BME280;53242;51.694;10.006;2023-12-29T07:25:49;98764.94;;;7.99;88.97
66430;BME280;53242;51.694;10.006;2023-12-29T07:28:12;98766.16;;;8.03;88.79
66430;BME280;53242;51.694;10.006;2023-12-29T07:30:34;98774.66;;;7.99;89.03
66430;BME280;53242;51.694;10.006;2023-12-29T07:32:57;98766.75;;;7.99;89.16
66430;BME280;53242;51.694;10.006;2023-12-29T07:35:19;98784.75;;;8.02;88.86
66430;BME280;53242;51.694;10.006;2023-12-29T07:37:41;98780.50;;;8.01;88.90
66430;BME280;53242;51.694;10.006;2023-12-29T07:40:04;98789.41;;;8.00;88.83
66430;BME280;53242;51.694;10.006;2023-12-29T07:42:27;98797.31;;;8.00;88.98
66430;BME280;53242;51.694;10.006;2023-12-29T07:44:49;98796.91;;;8.03;88.72
66430;BME280;53242;51.694;10.006;2023-12-29T07:47:13;98797.31;;;8.00;88.75
66430;BME280;53242;51.694;10.006;2023-12-29T07:49:35;98806.97;;;7.99;88.63
66430;BME280;53242;51.694;10.006;2023-12-29T07:51:58;98801.34;;;8.02;88.62
66430;BME280;53242;51.694;10.006;2023-12-29T07:54:21;98794.84;;;7.98;88.83
66430;BME280;53242;51.694;10.006;2023-12-29T07:56:44;98795.66;;;7.99;88.54
66430;BME280;53242;51.694;10.006;2023-12-29T07:59:06;98787.16;;;7.97;88.61
66430;BME280;53242;51.694;10.006;2023-12-29T08:01:28;98779.13;;;8.05;87.98
66430;BME280;53242;51.694;10.006;2023-12-29T08:03:51;98779.94;;;8.12;87.79
66430;BME280;53242;51.694;10.006;2023-12-29T08:06:13;98781.38;;;8.15;87.64
66430;BME280;53242;51.694;10.006;2023-12-29T08:08:36;98783.22;;;8.14;87.97
66430;BME280;53242;51.694;10.006;2023-12-29T08:10:59;98792.53;;;8.17;87.79
66430;BME280;53242;51.694;10.006;2023-12-29T08:13:21;98793.13;;;8.19;87.78
66430;BME280;53242;51.694;10.006;2023-12-29T08:15:43;98796.38;;;8.21;87.88
66430;BME280;53242;51.694;10.006;2023-12-29T08:18:06;98782.44;;;8.20;87.43
66430;BME280;53242;51.694;10.006;2023-12-29T08:20:28;98773.34;;;8.23;87.43
66430;BME280;53242;51.694;10.006;2023-12-29T08:22:51;98796.38;;;8.28;87.38
66430;BME280;53242;51.694;10.006;2023-12-29T08:25:13;98801.06;;;8.26;87.04
66430;BME280;53242;51.694;10.006;2023-12-29T08:27:36;98780.41;;;8.22;87.31
66430;BME280;53242;51.694;10.006;2023-12-29T08:29:58;98776.56;;;8.32;86.94
66430;BME280;53242;51.694;10.006;2023-12-29T08:32:21;98789.94;;;8.30;87.00
66430;BME280;53242;51.694;10.006;2023-12-29T08:34:43;98791.38;;;8.39;86.62
66430;BME280;53242;51.694;10.006;2023-12-29T08:37:06;98774.63;;;8.47;85.82
66430;BME280;53242;51.694;10.006;2023-12-29T08:39:28;98788.16;;;8.44;85.98
66430;BME280;53242;51.694;10.006;2023-12-29T08:41:51;98791.78;;;8.43;86.12
66430;BME280;53242;51.694;10.006;2023-12-29T08:44:13;98801.16;;;8.52;85.49
66430;BME280;53242;51.694;10.006;2023-12-29T08:46:36;98794.88;;;8.53;85.55
66430;BME280;53242;51.694;10.006;2023-12-29T08:48:59;98794.69;;;8.55;85.46
66430;BME280;53242;51.694;10.006;2023-12-29T08:51:23;98797.94;;;8.64;85.35
66430;BME280;53242;51.694;10.006;2023-12-29T08:53:45;98791.91;;;8.70;85.17
66430;BME280;53242;51.694;10.006;2023-12-29T08:56:07;98799.59;;;8.71;85.42
66430;BME280;53242;51.694;10.006;2023-12-29T08:58:31;98799.78;;;8.77;85.61
66430;BME280;53242;51.694;10.006;2023-12-29T09:00:53;98795.16;;;8.85;84.67
66430;BME280;53242;51.694;10.006;2023-12-29T09:03:16;98798.22;;;8.89;84.92
66430;BME280;53242;51.694;10.006;2023-12-29T09:05:39;98804.06;;;8.91;85.31
66430;BME280;53242;51.694;10.006;2023-12-29T09:08:01;98805.09;;;8.97;85.33
66430;BME280;53242;51.694;10.006;2023-12-29T09:10:24;98800.84;;;8.96;85.54
66430;BME280;53242;51.694;10.006;2023-12-29T09:12:46;98804.47;;;9.01;85.82
66430;BME280;53242;51.694;10.006;2023-12-29T09:15:09;98810.97;;;9.05;85.91
66430;BME280;53242;51.694;10.006;2023-12-29T09:17:31;98814.22;;;9.08;85.66
66430;BME280;53242;51.694;10.006;2023-12-29T09:19:54;98807.13;;;9.08;86.34
66430;BME280;53242;51.694;10.006;2023-12-29T09:22:17;98813.19;;;9.02;86.50
66430;BME280;53242;51.694;10.006;2023-12-29T09:24:39;98813.00;;;9.10;86.47
66430;BME280;53242;51.694;10.006;2023-12-29T09:27:02;98812.00;;;8.98;86.90
66430;BME280;53242;51.694;10.006;2023-12-29T09:29:25;98813.00;;;9.03;87.88
66430;BME280;53242;51.694;10.006;2023-12-29T09:31:47;98819.88;;;9.04;88.79
66430;BME280;53242;51.694;10.006;2023-12-29T09:34:09;98825.53;;;8.95;88.06
66430;BME280;53242;51.694;10.006;2023-12-29T09:36:32;98821.91;;;8.96;88.34
66430;BME280;53242;51.694;10.006;2023-12-29T09:38:54;98823.91;;;8.94;88.81
66430;BME280;53242;51.694;10.006;2023-12-29T09:41:18;98822.09;;;8.87;89.95
66430;BME280;53242;51.694;10.006;2023-12-29T09:43:42;98825.94;;;8.92;90.22
66430;BME280;53242;51.694;10.006;2023-12-29T09:46:06;98829.16;;;8.87;90.75
66430;BME280;53242;51.694;10.006;2023-12-29T09:48:31;98837.06;;;8.94;91.20
66430;BME280;53242;51.694;10.006;2023-12-29T09:50:55;98832.00;;;8.92;91.56
66430;BME280;53242;51.694;10.006;2023-12-29T09:53:20;98834.22;;;8.88;91.01
66430;BME280;53242;51.694;10.006;2023-12-29T09:55:43;98829.78;;;9.02;90.96
66430;BME280;53242;51.694;10.006;2023-12-29T09:58:08;98822.69;;;8.96;91.87
66430;BME280;53242;51.694;10.006;2023-12-29T10:00:33;98828.00;;;9.03;92.03
66430;BME280;53242;51.694;10.006;2023-12-29T10:02:56;98820.09;;;9.03;93.14
66430;BME280;53242;51.694;10.006;2023-12-29T10:05:20;98812.00;;;9.04;93.12
66430;BME280;53242;51.694;10.006;2023-12-29T10:07:43;98798.81;;;8.98;93.98
66430;BME280;53242;51.694;10.006;2023-12-29T10:10:12;98808.16;;;9.00;93.71
66430;BME280;53242;51.694;10.006;2023-12-29T10:12:36;98802.06;;;8.93;93.82
66430;BME280;53242;51.694;10.006;2023-12-29T10:20:45;98810.38;;;8.97;94.12
66430;BME280;53242;51.694;10.006;2023-12-29T10:23:18;98806.72;;;8.98;94.45
66430;BME280;53242;51.694;10.006;2023-12-29T10:25:41;98804.88;;;8.92;95.03
66430;BME280;53242;51.694;10.006;2023-12-29T10:28:03;98801.84;;;8.95;93.18
66430;BME280;53242;51.694;10.006;2023-12-29T10:30:27;98796.78;;;8.86;94.58
66430;BME280;53242;51.694;10.006;2023-12-29T10:32:50;98801.63;;;8.89;94.51
66430;BME280;53242;51.694;10.006;2023-12-29T10:35:14;98802.63;;;8.88;95.49
66430;BME280;53242;51.694;10.006;2023-12-29T10:37:37;98798.38;;;8.81;95.33
66430;BME280;53242;51.694;10.006;2023-12-29T10:40:00;98790.69;;;8.79;96.50
66430;BME280;53242;51.694;10.006;2023-12-29T10:42:23;98787.84;;;8.74;96.62
66430;BME280;53242;51.694;10.006;2023-12-29T10:44:45;98792.91;;;8.76;96.46
66430;BME280;53242;51.694;10.006;2023-12-29T10:47:11;98784.22;;;8.75;96.56
66430;BME280;53242;51.694;10.006;2023-12-29T10:49:33;98779.38;;;8.85;96.92
66430;BME280;53242;51.694;10.006;2023-12-29T10:51:56;98786.84;;;8.82;97.16
66430;BME280;53242;51.694;10.006;2023-12-29T10:54:21;98789.28;;;8.83;96.66
66430;BME280;53242;51.694;10.006;2023-12-29T10:56:46;98788.88;;;8.86;96.69
66430;BME280;53242;51.694;10.006;2023-12-29T10:59:12;98796.38;;;8.89;97.25
66430;BME280;53242;51.694;10.006;2023-12-29T11:01:35;98793.75;;;8.89;96.90
66430;BME280;53242;51.694;10.006;2023-12-29T11:03:59;98804.69;;;8.86;97.75
66430;BME280;53242;51.694;10.006;2023-12-29T11:06:22;98799.22;;;8.81;97.96
66430;BME280;53242;51.694;10.006;2023-12-29T11:08:44;98804.69;;;8.86;98.00
66430;BME280;53242;51.694;10.006;2023-12-29T11:11:07;98785.63;;;8.91;98.05
66430;BME280;53242;51.694;10.006;2023-12-29T11:13:30;98782.00;;;8.79;98.66
66430;BME280;53242;51.694;10.006;2023-12-29T11:15:53;98770.84;;;8.83;99.05
66430;BME280;53242;51.694;10.006;2023-12-29T11:18:17;98769.66;;;8.99;97.72
66430;BME280;53242;51.694;10.006;2023-12-29T11:20:40;98766.22;;;8.92;97.88
66430;BME280;53242;51.694;10.006;2023-12-29T11:23:03;98759.16;;;8.93;97.32
66430;BME280;53242;51.694;10.006;2023-12-29T11:25:26;98746.78;;;8.93;97.28
66430;BME280;53242;51.694;10.006;2023-12-29T11:27:50;98755.50;;;9.00;97.20
66430;BME280;53242;51.694;10.006;2023-12-29T11:30:14;98769.66;;;9.06;97.19
66430;BME280;53242;51.694;10.006;2023-12-29T11:32:59;98762.19;;;9.16;95.81
66430;BME280;53242;51.694;10.006;2023-12-29T11:38:45;98778.97;;;9.15;95.55
66430;BME280;53242;51.694;10.006;2023-12-29T11:43:32;98758.34;;;9.12;94.69
66430;BME280;53242;51.694;10.006;2023-12-29T11:45:54;98761.56;;;9.21;94.08
66430;BME280;53242;51.694;10.006;2023-12-29T11:51:31;98752.66;;;9.15;96.39
66430;BME280;53242;51.694;10.006;2023-12-29T11:53:54;98751.44;;;9.25;96.13
66430;BME280;53242;51.694;10.006;2023-12-29T11:56:17;98760.34;;;9.17;96.63
66430;BME280;53242;51.694;10.006;2023-12-29T11:58:39;98759.34;;;9.11;97.25
66430;BME280;53242;51.694;10.006;2023-12-29T12:01:02;98749.81;;;9.10;97.64
66430;BME280;53242;51.694;10.006;2023-12-29T12:03:26;98735.88;;;9.03;97.96
66430;BME280;53242;51.694;10.006;2023-12-29T12:05:49;98743.53;;;9.11;97.98
66430;BME280;53242;51.694;10.006;2023-12-29T12:08:26;98744.16;;;9.13;98.09
66430;BME280;53242;51.694;10.006;2023-12-29T12:10:50;98764.41;;;9.06;99.55
66430;BME280;53242;51.694;10.006;2023-12-29T12:13:12;98753.47;;;8.96;99.50
66430;BME280;53242;51.694;10.006;2023-12-29T12:15:54;98736.03;;;9.01;99.79
66430;BME280;53242;51.694;10.006;2023-12-29T12:18:17;98709.34;;;8.98;100.00
66430;BME280;53242;51.694;10.006;2023-12-29T12:20:39;98712.38;;;8.95;100.00
66430;BME280;53242;51.694;10.006;2023-12-29T12:23:07;98714.78;;;8.96;99.24
66430;BME280;53242;51.694;10.006;2023-12-29T12:25:32;98700.84;;;8.96;98.30
66430;BME280;53242;51.694;10.006;2023-12-29T12:27:59;98706.09;;;8.96;97.12
66430;BME280;53242;51.694;10.006;2023-12-29T12:30:22;98718.47;;;8.95;96.90
66430;BME280;53242;51.694;10.006;2023-12-29T12:32:44;98721.47;;;8.92;95.43
66430;BME280;53242;51.694;10.006;2023-12-29T12:35:13;98715.41;;;9.05;93.21
66430;BME280;53242;51.694;10.006;2023-12-29T12:37:37;98713.78;;;9.04;91.67
66430;BME280;53242;51.694;10.006;2023-12-29T12:39:59;98719.03;;;8.97;91.55
66430;BME280;53242;51.694;10.006;2023-12-29T12:42:22;98713.38;;;9.07;92.31
66430;BME280;53242;51.694;10.006;2023-12-29T12:44:56;98721.88;;;9.02;93.35
66430;BME280;53242;51.694;10.006;2023-12-29T12:47:25;98731.59;;;9.02;93.65
66430;BME280;53242;51.694;10.006;2023-12-29T12:49:48;98731.81;;;9.07;94.10
66430;BME280;53242;51.694;10.006;2023-12-29T12:52:10;98733.03;;;8.98;94.76
66430;BME280;53242;51.694;10.006;2023-12-29T12:54:33;98732.03;;;9.05;95.06